< < Back
Terminal Aerodrome Forecast


Current Version              Previous Versions:   1  2  3  4  5  6  7  8  9  

Terminal Aerodrome Forecast

424
FTUS42 KTAE 251720
TAFDHN
TAF
KDHN 251720Z 2518/2618 VRB05KT P6SM SKC
     FM251900 05008G13KT P6SM FEW070
     FM260000 07005KT P6SM SKC=



Latest METAR

571
SAUS70 KWBC 260600 RRA
MTRDHN
METAR KDHN 260553Z AUTO 00000KT 10SM CLR 22/22 A3012 RMK AO2 SLP194
T02220222 10289 20222 403220222 50001


USA.gov is the U.S. government's official web portal to all federal, state and local government web resources and services.